createdAt,value
2023-03-31T00:00:42.654Z,99844.08
2023-03-31T00:03:26.563Z,99845.93
2023-03-31T00:06:02.566Z,99848.95
2023-03-31T00:08:40.675Z,99849.30
2023-03-31T00:11:15.970Z,99849.39
2023-03-31T00:13:52.043Z,99848.55
2023-03-31T00:16:27.844Z,99849.08
2023-03-31T00:19:04.827Z,99852.44
2023-03-31T00:21:39.617Z,99855.13
2023-03-31T00:24:23.524Z,99861.02
2023-03-31T00:26:57.604Z,99858.77
2023-03-31T00:29:34.948Z,99858.94
2023-03-31T00:32:11.871Z,99859.86
2023-03-31T00:34:48.283Z,99856.95
2023-03-31T00:37:23.169Z,99857.86
2023-03-31T00:39:58.761Z,99855.98
2023-03-31T00:42:41.690Z,99857.51
2023-03-31T00:45:33.720Z,99853.89
2023-03-31T00:48:17.484Z,99844.17
2023-03-31T00:50:59.451Z,99838.23
2023-03-31T00:53:38.793Z,99840.05
2023-03-31T00:56:18.579Z,99847.50
2023-03-31T00:59:02.127Z,99843.11
2023-03-31T01:01:40.359Z,99838.74
2023-03-31T01:04:17.721Z,99832.70
2023-03-31T01:07:01.633Z,99833.66
2023-03-31T01:09:36.573Z,99841.59
2023-03-31T01:12:13.975Z,99838.43
2023-03-31T01:14:48.850Z,99843.84
2023-03-31T01:17:29.369Z,99842.59
2023-03-31T01:20:17.151Z,99843.55
2023-03-31T01:23:24.085Z,99843.85
2023-03-31T01:26:28.192Z,99839.37
2023-03-31T01:29:08.766Z,99836.80
2023-03-31T01:32:18.646Z,99823.05
2023-03-31T01:35:21.336Z,99821.19
2023-03-31T01:38:53.088Z,99825.45
2023-03-31T01:44:58.182Z,99814.45
2023-03-31T01:47:41.031Z,99806.89
2023-03-31T01:50:25.510Z,99802.29
2023-03-31T01:53:08.446Z,99806.30
2023-03-31T01:55:50.820Z,99807.62
2023-03-31T01:58:32.580Z,99806.03
2023-03-31T02:01:13.717Z,99809.93
2023-03-31T02:03:56.984Z,99806.35
2023-03-31T02:06:36.407Z,99799.91
2023-03-31T02:09:18.472Z,99797.48
2023-03-31T02:11:56.579Z,99794.89
2023-03-31T02:14:37.985Z,99798.11
2023-03-31T02:17:22.003Z,99797.79
2023-03-31T02:20:05.966Z,99785.36
2023-03-31T02:22:44.272Z,99792.88
2023-03-31T02:25:24.697Z,99789.33
2023-03-31T02:28:02.577Z,99788.28
2023-03-31T02:30:45.739Z,99788.92
2023-03-31T02:33:22.119Z,99787.02
2023-03-31T02:35:58.843Z,99786.16
2023-03-31T02:38:40.811Z,99779.12
2023-03-31T02:41:15.702Z,99789.17
2023-03-31T02:43:52.072Z,99789.69
2023-03-31T02:46:32.496Z,99789.88
2023-03-31T02:49:12.252Z,99791.04
2023-03-31T02:52:11.749Z,99791.54
2023-03-31T02:55:23.283Z,99790.18
2023-03-31T02:58:24.152Z,99795.27
2023-03-31T03:01:18.220Z,99800.55
2023-03-31T03:04:11.570Z,99804.54
2023-03-31T03:07:01.317Z,99799.67
2023-03-31T03:09:47.243Z,99798.73
2023-03-31T03:12:28.376Z,99802.21
2023-03-31T03:15:10.664Z,99800.49
2023-03-31T03:17:48.869Z,99802.09
2023-03-31T03:20:25.411Z,99801.02
2023-03-31T03:23:01.248Z,99802.05
2023-03-31T03:25:37.318Z,99801.52
2023-03-31T03:28:14.068Z,99803.40
2023-03-31T03:30:50.112Z,99799.80
2023-03-31T03:33:25.218Z,99801.86
2023-03-31T03:35:59.783Z,99802.44
2023-03-31T03:38:35.536Z,99795.95
2023-03-31T03:41:12.994Z,99793.52
2023-03-31T03:43:47.939Z,99794.27
2023-03-31T03:46:25.240Z,99788.54
2023-03-31T03:49:00.434Z,99791.39
2023-03-31T03:51:37.172Z,99788.36
2023-03-31T03:54:12.319Z,99783.77
2023-03-31T03:56:46.748Z,99785.77
2023-03-31T03:59:23.767Z,99785.38
2023-03-31T04:01:59.698Z,99781.15
2023-03-31T04:04:33.813Z,99777.61
2023-03-31T04:07:08.752Z,99773.19
2023-03-31T04:09:42.981Z,99776.27
2023-03-31T04:12:42.127Z,99778.30
2023-03-31T04:15:17.190Z,99779.56
2023-03-31T04:17:55.953Z,99782.80
2023-03-31T04:20:32.638Z,99779.59
2023-03-31T04:23:10.468Z,99781.47
2023-03-31T04:25:47.614Z,99777.23
2023-03-31T04:28:24.619Z,99766.65
2023-03-31T04:31:02.961Z,99766.08
2023-03-31T04:33:46.467Z,99763.51
2023-03-31T04:36:22.083Z,99760.50
2023-03-31T04:38:59.755Z,99762.16
2023-03-31T04:41:36.384Z,99755.23
2023-03-31T04:44:10.519Z,99753.91
2023-03-31T04:46:45.729Z,99750.98
2023-03-31T04:49:20.276Z,99747.30
2023-03-31T04:51:56.345Z,99745.25
2023-03-31T04:54:32.820Z,99742.05
2023-03-31T04:57:07.718Z,99741.77
2023-03-31T04:59:43.125Z,99738.27
2023-03-31T05:02:25.751Z,99741.19
2023-03-31T05:05:02.958Z,99734.48
2023-03-31T05:07:38.792Z,99729.65
2023-03-31T05:10:16.332Z,99728.73
2023-03-31T05:12:51.524Z,99728.86
2023-03-31T05:15:26.620Z,99728.71
2023-03-31T05:18:02.970Z,99729.04
2023-03-31T05:20:40.681Z,99733.02
2023-03-31T05:23:16.508Z,99730.60
2023-03-31T05:25:53.819Z,99729.73
2023-03-31T05:28:27.675Z,99723.71
2023-03-31T05:31:04.293Z,99723.59
2023-03-31T05:33:42.477Z,99722.55
2023-03-31T05:36:19.716Z,99719.36
2023-03-31T05:38:57.854Z,99719.80
2023-03-31T05:41:31.570Z,99712.52
2023-03-31T05:44:06.071Z,99711.41
2023-03-31T05:46:41.117Z,99716.36
2023-03-31T05:49:17.611Z,99707.84
2023-03-31T05:51:52.369Z,99704.01
2023-03-31T05:54:28.031Z,99698.85
2023-03-31T05:57:03.412Z,99704.05
2023-03-31T05:59:41.079Z,99703.20
2023-03-31T06:02:18.458Z,99704.27
2023-03-31T06:04:56.878Z,99704.56
2023-03-31T06:07:33.286Z,99697.91
2023-03-31T06:10:11.667Z,99694.34
2023-03-31T06:12:46.674Z,99693.89
2023-03-31T06:15:21.937Z,99696.61
2023-03-31T06:17:58.392Z,99699.59
2023-03-31T06:20:33.900Z,99695.98
2023-03-31T06:23:10.215Z,99693.16
2023-03-31T06:25:50.819Z,99694.58
2023-03-31T06:28:25.709Z,99689.98
2023-03-31T06:31:07.434Z,99689.23
2023-03-31T06:33:44.887Z,99688.88
2023-03-31T06:36:21.598Z,99691.48
2023-03-31T06:38:56.882Z,99693.44
2023-03-31T06:41:32.590Z,99695.67
2023-03-31T06:44:09.277Z,99698.77
2023-03-31T06:46:45.880Z,99698.02
2023-03-31T06:49:23.663Z,99693.83
2023-03-31T06:51:59.818Z,99698.27
2023-03-31T06:54:36.167Z,99697.92
2023-03-31T06:57:10.977Z,99698.67
2023-03-31T06:59:46.217Z,99699.39
2023-03-31T07:02:23.534Z,99697.70
2023-03-31T07:04:58.992Z,99692.57
2023-03-31T07:07:38.381Z,99691.26
2023-03-31T07:10:17.191Z,99687.79
2023-03-31T07:12:54.672Z,99681.23
2023-03-31T07:15:31.634Z,99680.80
2023-03-31T07:18:07.920Z,99683.19
2023-03-31T07:20:43.942Z,99681.60
2023-03-31T07:23:18.424Z,99684.30
2023-03-31T07:25:53.888Z,99681.14
2023-03-31T07:28:31.400Z,99678.43
2023-03-31T07:31:19.185Z,99674.84
2023-03-31T07:33:54.484Z,99674.10
2023-03-31T07:36:31.091Z,99667.23
2023-03-31T07:39:06.763Z,99670.65
2023-03-31T07:41:43.074Z,99667.46
2023-03-31T07:44:22.437Z,99664.66
2023-03-31T07:46:59.326Z,99664.48
2023-03-31T07:49:34.804Z,99664.41
2023-03-31T07:52:10.713Z,99658.51
2023-03-31T07:54:46.297Z,99661.02
2023-03-31T07:57:21.247Z,99658.06
2023-03-31T07:59:56.605Z,99654.82
2023-03-31T08:02:31.574Z,99649.02
2023-03-31T08:05:08.212Z,99647.15
2023-03-31T08:07:46.506Z,99646.39
2023-03-31T08:10:22.597Z,99642.52
2023-03-31T08:12:58.619Z,99639.27
2023-03-31T08:15:36.048Z,99633.78
2023-03-31T08:18:10.299Z,99631.27
2023-03-31T08:20:46.169Z,99625.88
2023-03-31T08:23:22.794Z,99622.39
2023-03-31T08:26:08.467Z,99620.40
2023-03-31T08:28:44.173Z,99620.50
2023-03-31T08:31:21.997Z,99618.39
2023-03-31T08:33:56.630Z,99617.34
2023-03-31T08:36:32.965Z,99613.70
2023-03-31T08:39:09.110Z,99610.34
2023-03-31T08:42:02.885Z,99605.91
2023-03-31T08:44:42.618Z,99601.26
2023-03-31T08:47:21.508Z,99596.59
2023-03-31T08:50:00.773Z,99594.88
2023-03-31T08:52:39.786Z,99589.59
2023-03-31T08:55:20.719Z,99590.61
2023-03-31T08:58:02.856Z,99591.48
2023-03-31T09:00:48.936Z,99587.78
2023-03-31T09:03:31.838Z,99585.14
2023-03-31T09:06:15.341Z,99582.11
2023-03-31T09:08:54.333Z,99581.80
2023-03-31T09:11:37.374Z,99580.45
2023-03-31T09:14:48.380Z,99574.61
2023-03-31T09:17:28.018Z,99576.26
2023-03-31T09:20:10.185Z,99572.41
2023-03-31T09:22:54.750Z,99574.88
2023-03-31T09:25:34.909Z,99574.21
2023-03-31T09:28:15.818Z,99573.95
2023-03-31T09:30:52.683Z,99571.41
2023-03-31T09:33:32.959Z,99566.52
2023-03-31T09:36:16.318Z,99568.30
2023-03-31T09:38:51.396Z,99564.13
2023-03-31T09:41:27.868Z,99564.17
2023-03-31T09:44:02.317Z,99565.41
2023-03-31T09:46:40.300Z,99568.85
2023-03-31T09:49:21.464Z,99563.94
2023-03-31T09:52:04.066Z,99558.39
2023-03-31T09:54:49.658Z,99553.61
2023-03-31T09:57:33.789Z,99549.51
2023-03-31T10:00:17.159Z,99541.98
2023-03-31T10:02:53.705Z,99541.27
2023-03-31T10:05:58.048Z,99533.95
2023-03-31T10:08:37.093Z,99531.61
2023-03-31T10:11:15.786Z,99529.89
2023-03-31T10:13:54.148Z,99533.94
2023-03-31T10:16:36.836Z,99526.92
2023-03-31T10:19:24.129Z,99523.95
2023-03-31T10:22:02.939Z,99519.58
2023-03-31T10:24:43.233Z,99515.44
2023-03-31T10:27:27.432Z,99516.20
2023-03-31T10:30:04.954Z,99511.84
2023-03-31T10:32:43.424Z,99507.48
2023-03-31T10:35:30.200Z,99502.59
2023-03-31T10:38:09.679Z,99507.76
2023-03-31T10:40:52.251Z,99506.92
2023-03-31T10:43:32.142Z,99504.48
2023-03-31T10:46:09.344Z,99499.13
2023-03-31T10:48:46.390Z,99500.30
2023-03-31T10:51:23.445Z,99497.62
2023-03-31T10:54:03.582Z,99487.14
2023-03-31T10:56:48.662Z,99480.42
2023-03-31T10:59:35.234Z,99475.30
2023-03-31T11:02:59.219Z,99469.23
2023-03-31T11:05:42.287Z,99468.06
2023-03-31T11:08:33.329Z,99464.73
2023-03-31T11:11:21.939Z,99467.97
2023-03-31T11:14:06.551Z,99469.36
2023-03-31T11:16:53.598Z,99461.56
2023-03-31T11:19:41.696Z,99458.55
2023-03-31T11:22:25.695Z,99451.85
2023-03-31T11:25:14.008Z,99443.73
2023-03-31T11:28:21.789Z,99444.13
2023-03-31T11:31:08.889Z,99436.66
2023-03-31T11:33:59.936Z,99431.36
2023-03-31T11:36:46.488Z,99428.83
2023-03-31T11:39:54.245Z,99427.63
2023-03-31T11:42:37.231Z,99420.42
2023-03-31T11:45:19.868Z,99421.16
2023-03-31T11:48:00.964Z,99414.52
2023-03-31T11:50:40.703Z,99412.23
2023-03-31T11:53:25.526Z,99405.76
2023-03-31T11:56:05.602Z,99400.02
2023-03-31T11:58:47.463Z,99398.09
2023-03-31T12:01:28.162Z,99395.59
2023-03-31T12:04:09.575Z,99392.52
2023-03-31T12:06:47.499Z,99386.61
2023-03-31T12:09:29.809Z,99382.38
2023-03-31T12:12:12.062Z,99379.79
2023-03-31T12:14:53.812Z,99374.17
2023-03-31T12:17:31.449Z,99371.88
2023-03-31T12:20:16.382Z,99367.45
2023-03-31T12:22:53.356Z,99368.66
2023-03-31T12:25:31.166Z,99369.35
2023-03-31T12:28:08.407Z,99367.96
2023-03-31T12:30:45.234Z,99365.36
2023-03-31T12:33:27.356Z,99358.99
2023-03-31T12:36:16.183Z,99358.39
2023-03-31T12:39:13.357Z,99356.41
2023-03-31T12:42:06.393Z,99354.13
2023-03-31T12:44:53.293Z,99350.30
2023-03-31T12:47:48.832Z,99344.92
2023-03-31T12:50:52.424Z,99343.39
2023-03-31T12:53:46.348Z,99351.70
2023-03-31T12:56:26.529Z,99358.77
2023-03-31T12:59:35.355Z,99352.34
2023-03-31T13:02:42.592Z,99340.29
2023-03-31T13:05:50.068Z,99334.31
2023-03-31T13:08:55.277Z,99334.96
2023-03-31T13:11:50.163Z,99330.08
2023-03-31T13:14:27.444Z,99322.34
2023-03-31T13:17:25.440Z,99323.95
2023-03-31T13:20:21.505Z,99316.60
2023-03-31T13:23:04.825Z,99310.95
2023-03-31T13:25:50.138Z,99304.02
2023-03-31T13:28:34.627Z,99297.66
2023-03-31T13:31:12.199Z,99300.06
2023-03-31T13:33:57.631Z,99298.24
2023-03-31T13:37:08.966Z,99298.36
2023-03-31T13:40:08.665Z,99289.72
2023-03-31T13:43:29.423Z,99285.90
2023-03-31T13:46:58.356Z,99272.71
2023-03-31T13:49:54.419Z,99269.45
2023-03-31T13:52:49.361Z,99274.86
2023-03-31T13:55:56.677Z,99274.91
2023-03-31T13:58:49.753Z,99277.29
2023-03-31T14:01:49.195Z,99277.75
2023-03-31T14:04:59.266Z,99274.05
2023-03-31T14:07:41.146Z,99270.48
2023-03-31T14:10:32.167Z,99266.16
2023-03-31T14:13:18.183Z,99255.69
2023-03-31T14:15:59.592Z,99250.48
2023-03-31T14:18:37.556Z,99243.51
2023-03-31T14:21:24.084Z,99238.77
2023-03-31T14:24:09.372Z,99246.83
2023-03-31T14:27:00.560Z,99249.77
2023-03-31T14:29:55.354Z,99240.90
2023-03-31T14:32:45.041Z,99235.35
2023-03-31T14:35:34.802Z,99227.18
2023-03-31T14:38:19.033Z,99223.02
2023-03-31T14:41:04.592Z,99220.22
2023-03-31T14:43:50.556Z,99218.55
2023-03-31T14:46:28.323Z,99221.20
2023-03-31T14:49:25.818Z,99216.41
2023-03-31T14:52:15.490Z,99209.42
2023-03-31T14:55:08.497Z,99205.83
2023-03-31T14:57:46.947Z,99202.77
2023-03-31T15:00:33.390Z,99194.05
2023-03-31T15:03:16.587Z,99194.39
2023-03-31T15:05:52.096Z,99190.65
2023-03-31T15:08:29.994Z,99194.20
2023-03-31T15:14:04.447Z,99189.34
2023-03-31T15:16:47.803Z,99186.98
2023-03-31T15:19:26.155Z,99184.08
2023-03-31T15:22:06.739Z,99179.53
2023-03-31T15:24:43.453Z,99181.28
2023-03-31T15:27:35.815Z,99181.95
2023-03-31T15:30:21.359Z,99179.55
2023-03-31T15:33:11.147Z,99183.02
2023-03-31T15:35:56.378Z,99181.09
2023-03-31T15:38:33.851Z,99183.45
2023-03-31T15:41:17.541Z,99180.66
2023-03-31T15:44:06.769Z,99178.00
2023-03-31T15:47:04.185Z,99175.00
2023-03-31T15:49:39.589Z,99173.63
2023-03-31T15:52:26.298Z,99171.78
2023-03-31T15:55:02.143Z,99169.78
2023-03-31T15:57:38.410Z,99164.61
2023-03-31T16:00:48.291Z,99161.18
2023-03-31T16:03:29.352Z,99160.36
2023-03-31T16:06:11.676Z,99156.39
2023-03-31T16:08:49.267Z,99152.96
2023-03-31T16:11:30.550Z,99148.05
2023-03-31T16:14:14.227Z,99145.27
2023-03-31T16:16:55.390Z,99145.32
2023-03-31T16:19:33.757Z,99147.33
2023-03-31T16:22:09.184Z,99143.40
2023-03-31T16:24:45.560Z,99146.67
2023-03-31T16:27:20.291Z,99145.02
2023-03-31T16:30:06.984Z,99145.52
2023-03-31T16:32:41.736Z,99141.89
2023-03-31T16:35:16.815Z,99141.09
2023-03-31T16:37:55.774Z,99140.17
2023-03-31T16:40:30.381Z,99139.07
2023-03-31T16:43:17.644Z,99136.38
2023-03-31T16:45:54.039Z,99133.29
2023-03-31T16:48:34.383Z,99126.88
2023-03-31T16:51:09.897Z,99128.03
2023-03-31T16:53:43.578Z,99128.96
2023-03-31T16:56:20.229Z,99130.04
2023-03-31T16:58:55.351Z,99125.07
2023-03-31T17:01:31.445Z,99125.58
2023-03-31T17:04:06.294Z,99131.37
2023-03-31T17:06:41.676Z,99128.47
2023-03-31T17:09:17.891Z,99128.27
2023-03-31T17:11:53.659Z,99129.14
2023-03-31T17:14:29.074Z,99130.89
2023-03-31T17:17:04.207Z,99128.04
2023-03-31T17:19:38.692Z,99128.31
2023-03-31T17:22:13.698Z,99126.16
2023-03-31T17:24:53.385Z,99125.92
2023-03-31T17:27:30.189Z,99124.63
2023-03-31T17:30:07.339Z,99120.01
2023-03-31T17:32:41.506Z,99120.67
2023-03-31T17:35:21.331Z,99119.95
2023-03-31T17:37:56.473Z,99117.23
2023-03-31T17:40:33.880Z,99117.35
2023-03-31T17:43:08.409Z,99115.16
2023-03-31T17:45:43.443Z,99118.13
2023-03-31T17:48:19.074Z,99112.06
2023-03-31T17:50:55.268Z,99111.47
2023-03-31T17:53:28.748Z,99110.18
2023-03-31T17:56:04.379Z,99108.38
2023-03-31T17:58:40.539Z,99108.86
2023-03-31T18:01:17.951Z,99111.13
2023-03-31T18:03:56.913Z,99114.95
2023-03-31T18:06:34.089Z,99113.85
2023-03-31T18:09:09.322Z,99113.45
2023-03-31T18:11:44.173Z,99116.79
2023-03-31T18:14:18.619Z,99114.27
2023-03-31T18:16:55.926Z,99114.40
2023-03-31T18:19:30.425Z,99118.96
2023-03-31T18:22:07.029Z,99116.96
2023-03-31T18:24:41.831Z,99117.46
2023-03-31T18:27:19.201Z,99121.33
2023-03-31T18:29:56.846Z,99117.95
2023-03-31T18:32:33.071Z,99118.44
2023-03-31T18:35:17.333Z,99116.09
2023-03-31T18:37:52.363Z,99120.29
2023-03-31T18:40:26.952Z,99117.44
2023-03-31T18:43:02.496Z,99117.95
2023-03-31T18:45:39.188Z,99118.28
2023-03-31T18:48:15.400Z,99119.13
2023-03-31T18:50:52.114Z,99118.05
2023-03-31T18:53:28.121Z,99117.48
2023-03-31T18:56:04.488Z,99121.36
2023-03-31T18:58:40.204Z,99123.61
2023-03-31T19:01:14.756Z,99126.42
2023-03-31T19:03:54.921Z,99129.80
2023-03-31T19:06:30.746Z,99131.27
2023-03-31T19:09:07.086Z,99125.59
2023-03-31T19:11:46.219Z,99134.17
2023-03-31T19:14:23.116Z,99134.23
2023-03-31T19:16:58.197Z,99133.17
2023-03-31T19:19:35.450Z,99135.12
2023-03-31T19:22:09.735Z,99131.17
2023-03-31T19:24:45.450Z,99131.54
2023-03-31T19:27:23.194Z,99129.88
2023-03-31T19:29:58.773Z,99130.46
2023-03-31T19:32:34.376Z,99133.12
2023-03-31T19:35:11.504Z,99128.61
2023-03-31T19:37:46.265Z,99125.66
2023-03-31T19:40:22.209Z,99126.36
2023-03-31T19:42:58.576Z,99124.80
2023-03-31T19:45:34.836Z,99122.56
2023-03-31T19:48:12.002Z,99120.02
2023-03-31T19:50:53.004Z,99122.11
2023-03-31T19:53:28.143Z,99119.58
2023-03-31T19:56:09.266Z,99114.06
2023-03-31T19:58:45.434Z,99109.18
2023-03-31T20:01:24.440Z,99109.11
2023-03-31T20:04:00.057Z,99102.48
2023-03-31T20:06:39.225Z,99098.92
2023-03-31T20:09:18.345Z,99099.58
2023-03-31T20:11:54.045Z,99097.65
2023-03-31T20:14:30.061Z,99094.86
2023-03-31T20:17:07.796Z,99094.48
2023-03-31T20:19:45.118Z,99091.52
2023-03-31T20:22:18.658Z,99092.25
2023-03-31T20:24:53.614Z,99090.12
2023-03-31T20:27:28.903Z,99090.09
2023-03-31T20:30:05.697Z,99089.86
2023-03-31T20:32:41.975Z,99083.63
2023-03-31T20:35:17.824Z,99086.06
2023-03-31T20:37:52.883Z,99084.10
2023-03-31T20:40:27.189Z,99083.38
2023-03-31T20:43:04.669Z,99081.77
2023-03-31T20:45:40.138Z,99082.98
2023-03-31T20:48:15.290Z,99082.25
2023-03-31T20:50:50.128Z,99082.80
2023-03-31T20:53:26.606Z,99080.48
2023-03-31T20:56:02.866Z,99077.47
2023-03-31T20:58:39.679Z,99077.03
2023-03-31T21:01:18.282Z,99076.66
2023-03-31T21:03:52.396Z,99075.06
2023-03-31T21:06:28.488Z,99078.39
2023-03-31T21:09:04.268Z,99079.27
2023-03-31T21:11:40.710Z,99076.45
2023-03-31T21:14:18.267Z,99077.16
2023-03-31T21:16:53.908Z,99076.77
2023-03-31T21:19:29.623Z,99076.41
2023-03-31T21:22:04.830Z,99073.95
2023-03-31T21:24:40.933Z,99077.13
2023-03-31T21:27:18.565Z,99075.87
2023-03-31T21:29:54.089Z,99073.91
2023-03-31T21:32:29.790Z,99075.84
2023-03-31T21:35:15.031Z,99075.88
2023-03-31T21:37:50.667Z,99076.27
2023-03-31T21:40:24.770Z,99075.17
2023-03-31T21:43:04.132Z,99075.93
2023-03-31T21:45:43.265Z,99081.10
2023-03-31T21:48:26.092Z,99076.92
2023-03-31T21:51:03.765Z,99075.85
2023-03-31T21:53:40.333Z,99074.09
2023-03-31T21:56:15.538Z,99071.77
2023-03-31T21:58:54.658Z,99069.66
2023-03-31T22:01:30.848Z,99071.45
2023-03-31T22:04:06.800Z,99072.15
2023-03-31T22:06:43.175Z,99072.51
2023-03-31T22:09:18.473Z,99071.27
2023-03-31T22:11:54.379Z,99073.76
2023-03-31T22:14:29.754Z,99070.92
2023-03-31T22:17:04.335Z,99072.01
2023-03-31T22:19:39.829Z,99070.42
2023-03-31T22:22:14.690Z,99072.01
2023-03-31T22:24:48.585Z,99071.14
2023-03-31T22:27:22.865Z,99067.45
2023-03-31T22:29:57.358Z,99067.10
2023-03-31T22:32:34.104Z,99064.83
2023-03-31T22:35:13.256Z,99064.45
2023-03-31T22:37:48.300Z,99064.11
2023-03-31T22:40:23.307Z,99064.83
2023-03-31T22:42:58.738Z,99066.23
2023-03-31T22:45:33.518Z,99061.30
2023-03-31T22:48:09.907Z,99060.44
2023-03-31T22:50:46.528Z,99062.73
2023-03-31T22:53:30.230Z,99059.73
2023-03-31T22:56:10.768Z,99054.23
2023-03-31T22:58:46.306Z,99057.09
2023-03-31T23:01:23.741Z,99055.51
2023-03-31T23:04:01.128Z,99053.58
2023-03-31T23:06:36.709Z,99055.89
2023-03-31T23:09:11.745Z,99050.80
2023-03-31T23:11:48.234Z,99053.80
2023-03-31T23:14:23.577Z,99052.59
2023-03-31T23:16:58.293Z,99054.74
2023-03-31T23:19:32.537Z,99051.77
2023-03-31T23:22:07.882Z,99048.05
2023-03-31T23:24:44.710Z,99048.41
2023-03-31T23:27:21.147Z,99048.18
2023-03-31T23:29:59.618Z,99046.61
2023-03-31T23:32:34.826Z,99044.85
2023-03-31T23:35:13.429Z,99043.87
2023-03-31T23:37:48.491Z,99043.10
2023-03-31T23:40:24.489Z,99044.74
2023-03-31T23:43:00.897Z,99044.27
2023-03-31T23:45:35.572Z,99038.84
2023-03-31T23:48:11.445Z,99038.83
2023-03-31T23:50:47.716Z,99039.73
2023-03-31T23:53:23.906Z,99036.54
2023-03-31T23:56:01.238Z,99035.85
2023-03-31T23:58:37.300Z,99036.88
